createdAt,value
2023-04-13T00:01:56.607Z,1.00
2023-04-13T00:04:27.028Z,1.00
2023-04-13T00:06:59.193Z,1.00
2023-04-13T00:09:31.220Z,1.00
2023-04-13T00:12:00.123Z,1.00
2023-04-13T00:14:34.043Z,1.00
2023-04-13T00:17:03.308Z,1.00
2023-04-13T00:19:33.654Z,1.00
2023-04-13T00:22:03.819Z,1.00
2023-04-13T00:24:33.967Z,1.00
2023-04-13T00:27:02.934Z,1.00
2023-04-13T00:29:31.664Z,1.00
2023-04-13T00:32:00.302Z,1.00
2023-04-13T00:34:28.990Z,1.00
2023-04-13T00:36:57.769Z,1.00
2023-04-13T00:39:28.140Z,1.00
2023-04-13T00:41:58.060Z,1.00
2023-04-13T00:44:26.743Z,1.00
2023-04-13T00:46:56.656Z,1.00
2023-04-13T00:49:26.120Z,1.00
2023-04-13T00:51:54.877Z,1.00
2023-04-13T00:54:24.120Z,1.00
2023-04-13T00:56:55.243Z,1.00
2023-04-13T00:59:25.031Z,1.00
2023-04-13T01:01:56.657Z,1.00
2023-04-13T01:04:26.147Z,1.00
2023-04-13T01:07:01.165Z,1.00
2023-04-13T01:09:34.311Z,1.00
2023-04-13T01:12:13.212Z,1.00
2023-04-13T01:14:49.440Z,1.00
2023-04-13T01:17:23.024Z,1.00
2023-04-13T01:19:57.672Z,1.40
2023-04-13T01:22:30.582Z,9.30
2023-04-13T01:25:13.063Z,10.00
2023-04-13T01:27:47.450Z,6.00
2023-04-13T01:30:17.116Z,14.40
2023-04-13T01:32:46.342Z,21.40
2023-04-13T01:35:15.492Z,13.60
2023-04-13T01:37:44.187Z,24.30
2023-04-13T01:40:13.886Z,26.90
2023-04-13T01:42:44.903Z,36.60
2023-04-13T01:45:16.607Z,31.90
2023-04-13T01:47:51.710Z,40.80
2023-04-13T01:50:28.446Z,38.80
2023-04-13T01:53:01.936Z,43.50
2023-04-13T01:55:31.537Z,44.30
2023-04-13T01:58:04.534Z,53.40
2023-04-13T02:00:36.509Z,57.20
2023-04-13T02:03:06.515Z,45.00
2023-04-13T02:05:37.272Z,50.50
2023-04-13T02:08:06.671Z,62.00
2023-04-13T02:10:37.542Z,33.00
2023-04-13T02:13:09.672Z,25.50
2023-04-13T02:15:39.375Z,36.90
2023-04-13T02:18:08.939Z,29.40
2023-04-13T02:20:44.148Z,32.10
2023-04-13T02:23:15.135Z,46.10
2023-04-13T02:25:48.199Z,40.80
2023-04-13T02:28:18.948Z,47.70
2023-04-13T02:30:47.662Z,49.00
2023-04-13T02:33:17.115Z,46.00
2023-04-13T02:35:45.757Z,43.20
2023-04-13T02:38:15.808Z,41.00
2023-04-13T02:40:44.784Z,35.30
2023-04-13T02:43:15.054Z,28.00
2023-04-13T02:45:45.179Z,50.40
2023-04-13T02:48:13.862Z,60.30
2023-04-13T02:50:42.546Z,72.60
2023-04-13T02:53:11.228Z,71.40
2023-04-13T02:55:40.342Z,82.00
2023-04-13T02:58:10.914Z,73.90
2023-04-13T03:00:39.981Z,51.60
2023-04-13T03:03:10.223Z,79.20
2023-04-13T03:05:39.046Z,78.10
2023-04-13T03:08:07.738Z,89.70
2023-04-13T03:10:37.518Z,71.40
2023-04-13T03:13:06.276Z,71.80
2023-04-13T03:15:35.317Z,82.20
2023-04-13T03:18:05.072Z,71.80
2023-04-13T03:20:35.236Z,65.30
2023-04-13T03:23:04.732Z,53.00
2023-04-13T03:25:34.045Z,50.70
2023-04-13T03:28:03.013Z,62.50
2023-04-13T03:30:31.738Z,82.30
2023-04-13T03:33:00.510Z,94.60
2023-04-13T03:35:29.263Z,99.30
2023-04-13T03:38:00.229Z,97.20
2023-04-13T03:40:28.811Z,99.90
2023-04-13T03:42:57.481Z,99.90
2023-04-13T03:45:26.181Z,99.90
2023-04-13T03:47:54.781Z,99.90
2023-04-13T03:50:23.515Z,99.50
2023-04-13T03:52:52.360Z,99.90
2023-04-13T03:55:23.350Z,99.90
2023-04-13T03:57:52.019Z,99.90
2023-04-13T04:00:21.105Z,99.90
2023-04-13T04:02:50.020Z,98.40
2023-04-13T04:05:19.162Z,99.00
2023-04-13T04:07:47.809Z,96.90
2023-04-13T04:10:18.010Z,99.90
2023-04-13T04:12:48.135Z,95.70
2023-04-13T04:15:17.032Z,99.90
2023-04-13T04:17:45.752Z,99.90
2023-04-13T04:20:14.753Z,99.90
2023-04-13T04:22:44.986Z,99.90
2023-04-13T04:25:18.003Z,99.90
2023-04-13T04:27:50.064Z,99.90
2023-04-13T04:30:22.483Z,99.90
2023-04-13T04:32:53.136Z,99.90
2023-04-13T04:35:26.354Z,99.90
2023-04-13T04:37:56.054Z,99.90
2023-04-13T04:40:25.854Z,99.90
2023-04-13T04:42:56.009Z,99.90
2023-04-13T04:45:27.683Z,99.90
2023-04-13T04:47:57.671Z,99.90
2023-04-13T04:50:26.605Z,98.30
2023-04-13T04:52:55.300Z,99.90
2023-04-13T04:55:23.990Z,99.90
2023-04-13T04:57:52.602Z,99.90
2023-04-13T05:00:23.008Z,98.40
2023-04-13T05:02:52.042Z,98.50
2023-04-13T05:05:21.399Z,99.90
2023-04-13T05:07:51.190Z,80.10
2023-04-13T05:10:20.029Z,91.40
2023-04-13T05:12:49.846Z,99.90
2023-04-13T05:15:18.575Z,67.70
2023-04-13T05:17:50.442Z,72.30
2023-04-13T05:20:19.518Z,56.50
2023-04-13T05:22:48.542Z,73.00
2023-04-13T05:25:17.261Z,81.90
2023-04-13T05:27:45.864Z,77.60
2023-04-13T05:30:15.151Z,82.30
2023-04-13T05:32:44.254Z,57.10
2023-04-13T05:35:14.367Z,71.30
2023-04-13T05:37:44.838Z,55.50
2023-04-13T05:40:15.280Z,53.00
2023-04-13T05:42:44.350Z,40.90
2023-04-13T05:45:13.366Z,52.00
2023-04-13T05:47:42.166Z,56.10
2023-04-13T05:50:12.068Z,48.30
2023-04-13T05:52:42.147Z,44.90
2023-04-13T05:55:11.967Z,22.00
2023-04-13T05:57:41.063Z,30.60
2023-04-13T06:00:11.327Z,16.80
2023-04-13T06:02:42.159Z,20.50
2023-04-13T06:05:13.898Z,22.60
2023-04-13T06:07:45.164Z,5.10
2023-04-13T06:10:15.333Z,20.90
2023-04-13T06:12:48.550Z,19.40
2023-04-13T06:15:18.498Z,26.90
2023-04-13T06:17:47.233Z,32.50
2023-04-13T06:20:16.580Z,20.20
2023-04-13T06:22:46.801Z,31.20
2023-04-13T06:25:16.846Z,42.40
2023-04-13T06:27:46.801Z,37.30
2023-04-13T06:30:15.880Z,36.50
2023-04-13T06:32:44.591Z,44.70
2023-04-13T06:35:13.336Z,47.60
2023-04-13T06:37:42.197Z,34.30
2023-04-13T06:40:15.044Z,37.70
2023-04-13T06:42:44.407Z,60.80
2023-04-13T06:45:14.446Z,41.90
2023-04-13T06:47:43.238Z,43.10
2023-04-13T06:50:14.311Z,25.30
2023-04-13T06:52:45.934Z,15.10
2023-04-13T06:55:17.601Z,3.30
2023-04-13T06:57:46.714Z,4.70
2023-04-13T07:00:29.122Z,1.60
2023-04-13T07:03:00.004Z,2.40
2023-04-13T07:05:29.057Z,1.00
2023-04-13T07:07:58.524Z,1.00
2023-04-13T07:10:28.824Z,1.00
2023-04-13T07:12:59.902Z,1.00
2023-04-13T07:15:29.029Z,1.00
2023-04-13T07:17:57.836Z,1.00
2023-04-13T07:20:26.628Z,1.00
2023-04-13T07:22:55.422Z,1.00
2023-04-13T07:25:24.009Z,1.00
2023-04-13T07:27:54.120Z,1.00
2023-04-13T07:30:22.997Z,1.00
2023-04-13T07:32:52.064Z,1.00
2023-04-13T07:35:20.948Z,1.00
2023-04-13T07:37:51.515Z,1.00
2023-04-13T07:40:21.968Z,1.00
2023-04-13T07:42:52.094Z,1.00
2023-04-13T07:45:22.576Z,1.00
2023-04-13T07:47:53.701Z,1.00
2023-04-13T07:50:23.341Z,1.00
2023-04-13T07:52:53.620Z,1.00
2023-04-13T07:55:22.381Z,1.00
2023-04-13T07:57:51.114Z,1.00
2023-04-13T08:00:23.248Z,1.00
2023-04-13T08:02:52.567Z,1.00
2023-04-13T08:05:21.552Z,1.00
2023-04-13T08:07:50.429Z,1.00
2023-04-13T08:10:19.221Z,1.00
2023-04-13T08:12:47.895Z,1.00
2023-04-13T08:15:16.694Z,1.00
2023-04-13T08:17:47.053Z,1.00
2023-04-13T08:20:16.283Z,1.00
2023-04-13T08:22:47.429Z,1.00
2023-04-13T08:25:17.704Z,1.00
2023-04-13T08:27:46.567Z,14.50
2023-04-13T08:30:15.464Z,1.60
2023-04-13T08:32:45.592Z,10.40
2023-04-13T08:35:17.699Z,28.10
2023-04-13T08:37:46.507Z,18.60
2023-04-13T08:40:15.925Z,49.20
2023-04-13T08:42:44.689Z,65.30
2023-04-13T08:45:14.546Z,78.10
2023-04-13T08:47:43.987Z,83.90
2023-04-13T08:50:16.369Z,99.90
2023-04-13T08:52:45.410Z,99.90
2023-04-13T08:55:15.999Z,99.90
2023-04-13T08:57:46.440Z,99.90
2023-04-13T09:00:18.433Z,99.90
2023-04-13T09:03:03.196Z,99.90
2023-04-13T09:05:39.297Z,99.90
2023-04-13T09:08:08.488Z,99.90
2023-04-13T09:10:37.550Z,99.90
2023-04-13T09:13:06.433Z,99.90
2023-04-13T09:15:35.974Z,99.90
2023-04-13T09:18:12.852Z,99.90
2023-04-13T09:20:43.153Z,99.90
2023-04-13T09:23:18.477Z,99.90
2023-04-13T09:25:49.875Z,99.90
2023-04-13T09:28:19.863Z,99.90
2023-04-13T09:30:48.788Z,99.90
2023-04-13T09:33:18.695Z,99.90
2023-04-13T09:35:48.854Z,99.90
2023-04-13T09:38:17.504Z,99.90
2023-04-13T09:40:54.617Z,99.90
2023-04-13T09:43:23.257Z,99.90
2023-04-13T09:45:52.191Z,99.90
2023-04-13T09:48:22.134Z,99.90
2023-04-13T09:51:02.090Z,99.90
2023-04-13T09:53:42.698Z,99.90
2023-04-13T09:56:11.776Z,99.90
2023-04-13T09:58:45.038Z,99.90
2023-04-13T10:01:15.480Z,99.90
2023-04-13T10:03:45.187Z,99.90
2023-04-13T10:06:15.834Z,99.90
2023-04-13T10:08:46.643Z,99.90
2023-04-13T10:11:19.139Z,99.90
2023-04-13T10:13:53.730Z,99.90
2023-04-13T10:16:44.516Z,99.90
2023-04-13T10:19:16.461Z,99.90
2023-04-13T10:21:49.199Z,99.90
2023-04-13T10:24:18.589Z,99.90
2023-04-13T10:26:47.955Z,99.90
2023-04-13T10:29:17.250Z,99.90
2023-04-13T10:31:48.240Z,99.90
2023-04-13T10:34:27.515Z,99.90
2023-04-13T10:36:58.804Z,99.90
2023-04-13T10:39:29.333Z,99.90
2023-04-13T10:42:02.470Z,99.90
2023-04-13T10:44:42.999Z,99.90
2023-04-13T10:47:12.755Z,99.90
2023-04-13T10:49:42.385Z,99.90
2023-04-13T10:52:13.232Z,99.90
2023-04-13T10:54:43.214Z,99.90
2023-04-13T10:57:13.347Z,99.90
2023-04-13T11:02:18.001Z,99.90
2023-04-13T11:04:48.555Z,99.90
2023-04-13T11:07:20.265Z,99.90
2023-04-13T11:09:50.965Z,99.90
2023-04-13T11:12:20.643Z,99.90
2023-04-13T11:14:49.827Z,99.90
2023-04-13T11:17:19.748Z,1.00
2023-04-13T11:19:50.999Z,99.90
2023-04-13T11:22:24.536Z,1.00
2023-04-13T11:24:53.937Z,99.90
2023-04-13T11:27:23.751Z,1.00
2023-04-13T11:29:59.796Z,99.90
2023-04-13T11:32:29.051Z,99.90
2023-04-13T11:35:08.945Z,99.90
2023-04-13T11:37:39.910Z,99.90
2023-04-13T11:40:13.158Z,99.90
2023-04-13T11:42:44.506Z,99.90
2023-04-13T11:45:15.008Z,99.90
2023-04-13T11:47:44.263Z,99.90
2023-04-13T11:50:15.408Z,99.90
2023-04-13T11:52:46.807Z,99.90
2023-04-13T11:55:23.031Z,99.90
2023-04-13T11:57:52.992Z,99.90
2023-04-13T12:00:26.562Z,99.90
2023-04-13T12:05:33.145Z,99.90
2023-04-13T12:08:04.976Z,99.90
2023-04-13T12:10:42.486Z,99.90
2023-04-13T12:13:35.053Z,99.90
2023-04-13T12:16:15.915Z,99.90
2023-04-13T12:18:49.850Z,99.90
2023-04-13T12:21:20.962Z,99.90
2023-04-13T12:24:01.219Z,99.90
2023-04-13T12:29:06.946Z,99.90
2023-04-13T12:31:37.425Z,99.90
2023-04-13T12:34:06.683Z,99.90
2023-04-13T12:36:36.845Z,99.90
2023-04-13T12:39:08.538Z,79.60
2023-04-13T12:41:38.137Z,99.90
2023-04-13T12:44:07.345Z,99.90
2023-04-13T12:46:36.483Z,76.40
2023-04-13T12:49:07.604Z,99.90
2023-04-13T12:51:36.505Z,99.90
2023-04-13T12:54:13.294Z,99.90
2023-04-13T12:56:43.158Z,99.90
2023-04-13T12:59:13.626Z,99.90
2023-04-13T13:01:42.609Z,66.40
2023-04-13T13:04:11.778Z,86.00
2023-04-13T13:06:41.041Z,98.90
2023-04-13T13:09:11.311Z,29.40
2023-04-13T13:11:40.352Z,16.70
2023-04-13T13:14:11.314Z,42.00
2023-04-13T13:16:40.468Z,38.60
2023-04-13T13:19:09.644Z,33.60
2023-04-13T13:21:38.938Z,14.50
2023-04-13T13:24:09.091Z,1.90
2023-04-13T13:27:00.106Z,59.40
2023-04-13T13:29:33.516Z,20.90
2023-04-13T13:32:02.899Z,1.00
2023-04-13T13:34:32.308Z,1.00
2023-04-13T13:37:01.424Z,1.00
2023-04-13T13:39:30.194Z,2.40
2023-04-13T13:42:00.528Z,1.00
2023-04-13T13:44:29.422Z,1.00
2023-04-13T13:46:58.572Z,1.00
2023-04-13T13:49:27.538Z,1.00
2023-04-13T13:51:56.789Z,6.90
2023-04-13T13:54:25.725Z,17.50
2023-04-13T13:56:54.529Z,17.40
2023-04-13T13:59:25.367Z,1.00
2023-04-13T14:01:54.393Z,15.60
2023-04-13T14:04:23.465Z,16.40
2023-04-13T14:06:52.230Z,40.90
2023-04-13T14:09:24.403Z,61.20
2023-04-13T14:11:53.206Z,52.80
2023-04-13T14:14:23.614Z,41.30
2023-04-13T14:16:52.422Z,22.20
2023-04-13T14:19:22.622Z,11.30
2023-04-13T14:21:51.768Z,66.90
2023-04-13T14:24:20.661Z,84.10
2023-04-13T14:26:49.643Z,99.90
2023-04-13T14:29:18.726Z,96.10
2023-04-13T14:31:49.390Z,97.20
2023-04-13T14:34:18.227Z,99.90
2023-04-13T14:36:49.734Z,73.60
2023-04-13T14:39:20.196Z,99.90
2023-04-13T14:41:49.331Z,99.90
2023-04-13T14:44:18.121Z,97.80
2023-04-13T14:46:47.337Z,99.90
2023-04-13T14:49:18.229Z,99.90
2023-04-13T14:51:47.011Z,99.90
2023-04-13T14:54:15.731Z,99.90
2023-04-13T14:56:44.528Z,99.90
2023-04-13T14:59:13.388Z,99.90
2023-04-13T15:01:42.609Z,99.90
2023-04-13T15:04:11.812Z,99.90
2023-04-13T15:06:42.243Z,99.90
2023-04-13T15:09:13.237Z,99.90
2023-04-13T15:11:42.080Z,99.90
2023-04-13T15:14:10.953Z,99.90
2023-04-13T15:16:39.956Z,99.90
2023-04-13T15:19:08.975Z,99.90
2023-04-13T15:21:37.936Z,99.90
2023-04-13T15:24:10.532Z,99.90
2023-04-13T15:26:40.965Z,1.00
2023-04-13T15:29:10.680Z,1.00
2023-04-13T15:31:40.790Z,1.00
2023-04-13T15:34:09.685Z,1.00
2023-04-13T15:36:38.728Z,91.30
2023-04-13T15:39:09.186Z,99.90
2023-04-13T15:41:38.043Z,99.90
2023-04-13T15:44:06.941Z,1.00
2023-04-13T15:46:35.943Z,99.90
2023-04-13T15:49:07.393Z,50.90
2023-04-13T15:51:37.025Z,99.90
2023-04-13T15:54:06.204Z,1.00
2023-04-13T15:56:37.291Z,99.90
2023-04-13T15:59:06.505Z,99.90
2023-04-13T16:01:47.334Z,1.00
2023-04-13T16:04:16.807Z,1.00
2023-04-13T16:06:46.382Z,99.90
2023-04-13T16:09:15.233Z,1.00
2023-04-13T16:11:45.715Z,99.90
2023-04-13T16:14:14.655Z,1.00
2023-04-13T16:16:47.069Z,1.00
2023-04-13T16:19:18.468Z,1.00
2023-04-13T16:21:51.138Z,96.10
2023-04-13T16:24:21.330Z,99.90
2023-04-13T16:26:52.337Z,99.90
2023-04-13T16:29:21.144Z,1.00
2023-04-13T16:31:50.242Z,1.00
2023-04-13T16:34:26.292Z,1.00
2023-04-13T16:36:57.193Z,1.00
2023-04-13T16:39:26.155Z,1.00
2023-04-13T16:41:57.095Z,1.00
2023-04-13T16:44:26.345Z,1.30
2023-04-13T16:46:55.772Z,24.00
2023-04-13T16:49:24.974Z,23.20
2023-04-13T16:51:55.419Z,56.50
2023-04-13T16:54:24.651Z,34.80
2023-04-13T16:56:54.501Z,72.50
2023-04-13T16:59:26.621Z,97.80
2023-04-13T17:01:56.057Z,99.90
2023-04-13T17:04:25.406Z,99.90
2023-04-13T17:07:01.528Z,99.90
2023-04-13T17:09:30.506Z,99.90
2023-04-13T17:11:59.676Z,99.90
2023-04-13T17:14:31.263Z,99.90
2023-04-13T17:17:00.071Z,99.90
2023-04-13T17:19:29.426Z,99.90
2023-04-13T17:21:59.469Z,99.90
2023-04-13T17:24:29.374Z,99.90
2023-04-13T17:26:58.263Z,99.90
2023-04-13T17:29:27.312Z,99.90
2023-04-13T17:31:58.435Z,98.10
2023-04-13T17:34:27.679Z,99.90
2023-04-13T17:36:58.346Z,99.90
2023-04-13T17:39:29.789Z,99.90
2023-04-13T17:41:58.757Z,99.90
2023-04-13T17:44:27.902Z,99.90
2023-04-13T17:47:00.100Z,99.90
2023-04-13T17:49:29.555Z,99.90
2023-04-13T17:52:02.493Z,99.90
2023-04-13T17:54:31.576Z,99.90
2023-04-13T17:57:00.944Z,99.90
2023-04-13T17:59:30.102Z,99.90
2023-04-13T18:02:01.853Z,99.90
2023-04-13T18:04:32.897Z,99.90
2023-04-13T18:07:02.331Z,99.90
2023-04-13T18:09:31.767Z,99.90
2023-04-13T18:12:01.842Z,99.90
2023-04-13T18:14:31.331Z,99.90
2023-04-13T18:17:06.179Z,99.90
2023-04-13T18:19:36.250Z,99.90
2023-04-13T18:22:06.317Z,99.90
2023-04-13T18:24:36.395Z,99.90
2023-04-13T18:27:06.297Z,99.90
2023-04-13T18:29:35.553Z,99.90
2023-04-13T18:32:07.630Z,99.90
2023-04-13T18:34:37.157Z,99.90
2023-04-13T18:37:06.145Z,99.90
2023-04-13T18:39:36.625Z,99.90
2023-04-13T18:42:08.336Z,99.90
2023-04-13T18:44:39.712Z,99.90
2023-04-13T18:47:11.104Z,99.90
2023-04-13T18:49:42.607Z,99.90
2023-04-13T18:52:12.265Z,99.90
2023-04-13T18:54:44.281Z,99.90
2023-04-13T18:57:13.840Z,99.90
2023-04-13T18:59:45.330Z,99.90
2023-04-13T19:02:16.870Z,99.90
2023-04-13T19:04:46.862Z,99.90
2023-04-13T19:07:18.048Z,99.90
2023-04-13T19:09:48.449Z,99.90
2023-04-13T19:12:18.057Z,99.90
2023-04-13T19:14:48.890Z,99.90
2023-04-13T19:17:21.695Z,99.90
2023-04-13T19:19:51.954Z,99.90
2023-04-13T19:22:22.293Z,99.90
2023-04-13T19:24:51.456Z,99.90
2023-04-13T19:27:25.134Z,99.90
2023-04-13T19:29:57.033Z,99.90
2023-04-13T19:32:31.347Z,99.90
2023-04-13T19:35:05.513Z,99.90
2023-04-13T19:37:35.217Z,99.90
2023-04-13T19:40:09.911Z,99.90
2023-04-13T19:42:42.965Z,99.90
2023-04-13T19:45:14.322Z,99.90
2023-04-13T19:47:48.950Z,99.90
2023-04-13T19:50:21.520Z,99.90
2023-04-13T19:52:53.930Z,99.90
2023-04-13T19:55:23.949Z,99.90
2023-04-13T19:57:53.803Z,99.90
2023-04-13T20:00:25.600Z,99.90
2023-04-13T20:03:03.459Z,99.90
2023-04-13T20:05:33.741Z,99.90
2023-04-13T20:08:03.660Z,99.90
2023-04-13T20:10:34.014Z,99.90
2023-04-13T20:13:03.867Z,99.90
2023-04-13T20:15:35.841Z,99.90
2023-04-13T20:18:08.355Z,99.90
2023-04-13T20:20:38.456Z,99.90
2023-04-13T20:23:08.340Z,99.90
2023-04-13T20:25:39.313Z,99.90
2023-04-13T20:28:11.059Z,99.90
2023-04-13T20:30:41.654Z,99.90
2023-04-13T20:33:14.207Z,99.90
2023-04-13T20:35:45.027Z,99.90
2023-04-13T20:38:14.928Z,99.90
2023-04-13T20:40:46.270Z,99.90
2023-04-13T20:43:16.981Z,99.90
2023-04-13T20:45:46.016Z,99.90
2023-04-13T20:50:48.722Z,99.90
2023-04-13T20:53:17.902Z,99.90
2023-04-13T20:55:47.127Z,99.90
2023-04-13T20:58:17.312Z,99.90
2023-04-13T21:00:46.426Z,99.90
2023-04-13T21:03:16.960Z,99.90
2023-04-13T21:05:46.161Z,99.90
2023-04-13T21:08:15.086Z,99.90
2023-04-13T21:10:44.423Z,99.90
2023-04-13T21:13:13.473Z,99.90
2023-04-13T21:15:42.344Z,99.90
2023-04-13T21:18:11.402Z,99.90
2023-04-13T21:20:45.579Z,99.90
2023-04-13T21:23:14.342Z,99.90
2023-04-13T21:25:44.714Z,99.90
2023-04-13T21:28:13.556Z,99.90
2023-04-13T21:30:42.364Z,99.90
2023-04-13T21:33:11.197Z,99.90
2023-04-13T21:35:41.542Z,99.90
2023-04-13T21:38:10.499Z,99.90
2023-04-13T21:40:39.263Z,99.90
2023-04-13T21:43:08.104Z,99.90
2023-04-13T21:45:37.211Z,99.90
2023-04-13T21:48:06.548Z,99.90
2023-04-13T21:50:35.338Z,99.90
2023-04-13T21:53:05.501Z,99.90
2023-04-13T21:55:34.300Z,99.90
2023-04-13T21:58:03.128Z,99.90
2023-04-13T22:00:33.158Z,99.90
2023-04-13T22:03:02.094Z,99.90
2023-04-13T22:05:31.020Z,99.90
2023-04-13T22:08:00.252Z,99.90
2023-04-13T22:10:30.689Z,99.90
2023-04-13T22:12:59.526Z,99.90
2023-04-13T22:15:28.331Z,99.90
2023-04-13T22:17:57.159Z,99.90
2023-04-13T22:20:25.965Z,99.90
2023-04-13T22:22:54.801Z,99.90
2023-04-13T22:25:25.517Z,99.90
2023-04-13T22:27:55.702Z,99.90
2023-04-13T22:30:24.521Z,99.90
2023-04-13T22:32:53.274Z,99.90
2023-04-13T22:35:21.942Z,99.90
2023-04-13T22:37:50.765Z,99.90
2023-04-13T22:40:19.680Z,99.90
2023-04-13T22:42:48.384Z,99.90
2023-04-13T22:45:18.622Z,99.90
2023-04-13T22:47:47.454Z,99.90
2023-04-13T22:50:16.305Z,99.90
2023-04-13T22:52:45.113Z,99.90
2023-04-13T22:55:13.824Z,99.90
2023-04-13T22:57:42.529Z,99.90
2023-04-13T23:00:12.560Z,99.90
2023-04-13T23:02:42.972Z,96.90
2023-04-13T23:05:11.944Z,99.90
2023-04-13T23:07:40.697Z,99.90
2023-04-13T23:10:10.625Z,99.90
2023-04-13T23:12:40.149Z,99.90
2023-04-13T23:15:09.967Z,99.90
2023-04-13T23:17:38.822Z,99.90
2023-04-13T23:20:10.847Z,99.90
2023-04-13T23:22:39.587Z,99.90
2023-04-13T23:25:08.774Z,99.90
2023-04-13T23:27:37.463Z,99.90
2023-04-13T23:30:07.302Z,99.90
2023-04-13T23:32:36.280Z,99.90
2023-04-13T23:35:05.184Z,99.90
2023-04-13T23:37:35.397Z,99.90
2023-04-13T23:40:04.389Z,99.40
2023-04-13T23:42:33.062Z,99.90
2023-04-13T23:45:01.851Z,91.80
2023-04-13T23:47:30.652Z,99.90
2023-04-13T23:49:59.346Z,99.90
2023-04-13T23:52:29.099Z,99.90
2023-04-13T23:54:59.226Z,99.90
2023-04-13T23:57:27.973Z,99.90
2023-04-13T23:59:59.655Z,99.90
